Terminal Aerodrome Forecast
Issued by NWS Paducah, KY

Home | Current Version | Previous Version | Text Only | Print | Product List | Glossary On
Versions: 1 2 3 4 5 6 7 8 9 10 11 12 13 14 15 16 17
000
FTUS43 KPAH 292100 AAA
TAFPAH
TAF AMD
KPAH 292118Z 2921/3018 32012G21KT P6SM OVC035
     FM300100 32008KT P6SM OVC025
     FM301500 01008KT P6SM SCT025=

USA.gov is the U.S. government's official web portal to all federal, state and local government web resources and services.